sensor_id;sensor_type;location;lat;lon;timestamp;temperature;humidity
53643;DHT22;39546;45.534;12.048;2024-02-21T00:03:20;12.80;82.00
53643;DHT22;39546;45.534;12.048;2024-02-21T00:09:21;12.70;82.10
53643;DHT22;39546;45.534;12.048;2024-02-21T00:15:23;12.80;82.00
53643;DHT22;39546;45.534;12.048;2024-02-21T00:21:25;12.80;81.80
53643;DHT22;39546;45.534;12.048;2024-02-21T00:27:26;12.70;81.60
53643;DHT22;39546;45.534;12.048;2024-02-21T00:33:28;12.70;81.40
53643;DHT22;39546;45.534;12.048;2024-02-21T00:39:30;12.70;81.30
53643;DHT22;39546;45.534;12.048;2024-02-21T00:45:32;12.70;81.50
53643;DHT22;39546;45.534;12.048;2024-02-21T00:51:34;12.70;82.10
53643;DHT22;39546;45.534;12.048;2024-02-21T00:57:36;12.70;82.40
53643;DHT22;39546;45.534;12.048;2024-02-21T01:03:39;12.70;82.60
53643;DHT22;39546;45.534;12.048;2024-02-21T01:09:49;12.60;82.60
53643;DHT22;39546;45.534;12.048;2024-02-21T01:15:52;12.70;82.60
53643;DHT22;39546;45.534;12.048;2024-02-21T01:21:54;12.70;82.60
53643;DHT22;39546;45.534;12.048;2024-02-21T01:27:55;12.60;82.50
53643;DHT22;39546;45.534;12.048;2024-02-21T01:33:57;12.40;83.10
53643;DHT22;39546;45.534;12.048;2024-02-21T01:40:03;12.30;83.70
53643;DHT22;39546;45.534;12.048;2024-02-21T01:46:05;12.40;83.80
53643;DHT22;39546;45.534;12.048;2024-02-21T01:52:07;12.40;83.90
53643;DHT22;39546;45.534;12.048;2024-02-21T01:58:09;12.20;84.30
53643;DHT22;39546;45.534;12.048;2024-02-21T02:04:12;12.20;84.60
53643;DHT22;39546;45.534;12.048;2024-02-21T02:10:13;12.20;84.80
53643;DHT22;39546;45.534;12.048;2024-02-21T02:16:15;12.20;84.40
53643;DHT22;39546;45.534;12.048;2024-02-21T02:22:22;12.20;84.10
53643;DHT22;39546;45.534;12.048;2024-02-21T02:28:23;12.20;84.20
53643;DHT22;39546;45.534;12.048;2024-02-21T02:34:26;12.10;83.80
53643;DHT22;39546;45.534;12.048;2024-02-21T02:40:27;12.00;83.40
53643;DHT22;39546;45.534;12.048;2024-02-21T02:46:29;12.00;83.20
53643;DHT22;39546;45.534;12.048;2024-02-21T02:52:30;12.00;83.30
53643;DHT22;39546;45.534;12.048;2024-02-21T02:58:32;11.90;83.10
53643;DHT22;39546;45.534;12.048;2024-02-21T03:04:33;11.80;83.00
53643;DHT22;39546;45.534;12.048;2024-02-21T03:10:35;11.70;82.90
53643;DHT22;39546;45.534;12.048;2024-02-21T03:16:37;11.70;82.70
53643;DHT22;39546;45.534;12.048;2024-02-21T03:22:38;11.60;82.50
53643;DHT22;39546;45.534;12.048;2024-02-21T03:28:40;11.60;82.30
53643;DHT22;39546;45.534;12.048;2024-02-21T03:34:41;11.50;82.10
53643;DHT22;39546;45.534;12.048;2024-02-21T03:40:43;11.50;82.10
53643;DHT22;39546;45.534;12.048;2024-02-21T03:46:46;11.50;81.90
53643;DHT22;39546;45.534;12.048;2024-02-21T03:52:48;11.30;81.80
53643;DHT22;39546;45.534;12.048;2024-02-21T03:58:50;11.00;82.10
53643;DHT22;39546;45.534;12.048;2024-02-21T04:04:52;10.90;82.60
53643;DHT22;39546;45.534;12.048;2024-02-21T04:10:53;10.90;82.50
53643;DHT22;39546;45.534;12.048;2024-02-21T04:16:55;11.00;82.20
53643;DHT22;39546;45.534;12.048;2024-02-21T04:22:56;11.00;82.00
53643;DHT22;39546;45.534;12.048;2024-02-21T04:28:58;10.90;81.90
53643;DHT22;39546;45.534;12.048;2024-02-21T04:35:00;10.80;81.90
53643;DHT22;39546;45.534;12.048;2024-02-21T04:41:01;10.40;82.30
53643;DHT22;39546;45.534;12.048;2024-02-21T04:47:03;10.50;82.50
53643;DHT22;39546;45.534;12.048;2024-02-21T04:53:05;10.40;82.60
53643;DHT22;39546;45.534;12.048;2024-02-21T04:59:07;10.70;82.30
53643;DHT22;39546;45.534;12.048;2024-02-21T05:05:08;10.80;81.70
53643;DHT22;39546;45.534;12.048;2024-02-21T05:11:10;11.10;81.30
53643;DHT22;39546;45.534;12.048;2024-02-21T05:17:11;11.20;80.90
53643;DHT22;39546;45.534;12.048;2024-02-21T05:23:13;11.20;80.70
53643;DHT22;39546;45.534;12.048;2024-02-21T05:29:14;11.30;80.40
53643;DHT22;39546;45.534;12.048;2024-02-21T05:35:16;11.40;80.10
53643;DHT22;39546;45.534;12.048;2024-02-21T05:41:18;11.70;80.70
53643;DHT22;39546;45.534;12.048;2024-02-21T05:47:19;11.70;80.40
53643;DHT22;39546;45.534;12.048;2024-02-21T05:53:22;11.20;80.60
53643;DHT22;39546;45.534;12.048;2024-02-21T05:59:24;11.30;80.50
53643;DHT22;39546;45.534;12.048;2024-02-21T06:05:25;11.60;80.50
53643;DHT22;39546;45.534;12.048;2024-02-21T06:11:27;11.60;79.90
53643;DHT22;39546;45.534;12.048;2024-02-21T06:17:28;11.70;79.40
53643;DHT22;39546;45.534;12.048;2024-02-21T06:23:30;11.80;79.00
53643;DHT22;39546;45.534;12.048;2024-02-21T06:29:33;11.80;78.20
53643;DHT22;39546;45.534;12.048;2024-02-21T06:35:34;11.80;78.00
53643;DHT22;39546;45.534;12.048;2024-02-21T06:41:37;11.80;77.80
53643;DHT22;39546;45.534;12.048;2024-02-21T06:47:39;11.70;77.90
53643;DHT22;39546;45.534;12.048;2024-02-21T06:53:41;11.70;78.10
53643;DHT22;39546;45.534;12.048;2024-02-21T06:59:42;11.70;78.00
53643;DHT22;39546;45.534;12.048;2024-02-21T07:05:44;11.80;78.00
53643;DHT22;39546;45.534;12.048;2024-02-21T07:11:46;11.70;78.30
53643;DHT22;39546;45.534;12.048;2024-02-21T07:17:48;11.30;79.20
53643;DHT22;39546;45.534;12.048;2024-02-21T07:23:50;11.70;79.60
53643;DHT22;39546;45.534;12.048;2024-02-21T07:29:52;12.10;80.30
53643;DHT22;39546;45.534;12.048;2024-02-21T07:35:54;12.10;79.90
53643;DHT22;39546;45.534;12.048;2024-02-21T07:41:56;12.10;80.00
53643;DHT22;39546;45.534;12.048;2024-02-21T07:47:57;12.00;80.10
53643;DHT22;39546;45.534;12.048;2024-02-21T07:53:59;11.90;80.60
53643;DHT22;39546;45.534;12.048;2024-02-21T08:00:01;12.00;81.00
53643;DHT22;39546;45.534;12.048;2024-02-21T08:06:03;12.20;81.10
53643;DHT22;39546;45.534;12.048;2024-02-21T08:12:06;12.40;81.20
53643;DHT22;39546;45.534;12.048;2024-02-21T08:18:08;12.50;81.30
53643;DHT22;39546;45.534;12.048;2024-02-21T08:24:14;12.60;81.70
53643;DHT22;39546;45.534;12.048;2024-02-21T08:30:18;12.60;81.80
53643;DHT22;39546;45.534;12.048;2024-02-21T08:36:21;12.40;82.40
53643;DHT22;39546;45.534;12.048;2024-02-21T08:42:23;12.50;82.90
53643;DHT22;39546;45.534;12.048;2024-02-21T08:48:24;12.70;82.70
53643;DHT22;39546;45.534;12.048;2024-02-21T08:54:26;12.60;82.80
53643;DHT22;39546;45.534;12.048;2024-02-21T09:00:29;12.70;83.20
53643;DHT22;39546;45.534;12.048;2024-02-21T09:06:31;12.60;83.00
53643;DHT22;39546;45.534;12.048;2024-02-21T09:12:35;12.50;83.30
53643;DHT22;39546;45.534;12.048;2024-02-21T09:18:42;12.80;83.90
53643;DHT22;39546;45.534;12.048;2024-02-21T09:24:43;13.00;83.90
53643;DHT22;39546;45.534;12.048;2024-02-21T09:30:53;13.20;83.90
53643;DHT22;39546;45.534;12.048;2024-02-21T09:36:55;13.30;83.80
53643;DHT22;39546;45.534;12.048;2024-02-21T09:43:05;13.20;84.10
53643;DHT22;39546;45.534;12.048;2024-02-21T09:49:31;13.20;84.30
53643;DHT22;39546;45.534;12.048;2024-02-21T09:55:39;13.30;84.30
53643;DHT22;39546;45.534;12.048;2024-02-21T10:01:43;13.40;84.40
53643;DHT22;39546;45.534;12.048;2024-02-21T10:07:47;13.40;84.50
53643;DHT22;39546;45.534;12.048;2024-02-21T10:13:50;13.50;84.20
53643;DHT22;39546;45.534;12.048;2024-02-21T10:19:52;13.70;84.20
53643;DHT22;39546;45.534;12.048;2024-02-21T10:25:54;13.70;84.30
53643;DHT22;39546;45.534;12.048;2024-02-21T10:38:08;13.90;82.20
53643;DHT22;39546;45.534;12.048;2024-02-21T10:44:11;13.90;82.00
53643;DHT22;39546;45.534;12.048;2024-02-21T10:50:14;14.10;82.70
53643;DHT22;39546;45.534;12.048;2024-02-21T10:56:24;14.20;82.10
53643;DHT22;39546;45.534;12.048;2024-02-21T11:02:28;14.30;81.50
53643;DHT22;39546;45.534;12.048;2024-02-21T11:08:32;14.50;81.60
53643;DHT22;39546;45.534;12.048;2024-02-21T11:14:34;14.80;82.50
53643;DHT22;39546;45.534;12.048;2024-02-21T11:20:49;14.90;82.30
53643;DHT22;39546;45.534;12.048;2024-02-21T11:26:51;15.30;82.40
53643;DHT22;39546;45.534;12.048;2024-02-21T11:33:03;15.60;81.20
53643;DHT22;39546;45.534;12.048;2024-02-21T11:39:05;15.80;79.90
53643;DHT22;39546;45.534;12.048;2024-02-21T11:45:08;15.90;80.40
53643;DHT22;39546;45.534;12.048;2024-02-21T11:51:21;16.10;79.80
53643;DHT22;39546;45.534;12.048;2024-02-21T11:57:24;16.00;78.60
53643;DHT22;39546;45.534;12.048;2024-02-21T12:03:26;16.00;79.90
53643;DHT22;39546;45.534;12.048;2024-02-21T12:09:27;16.20;79.40
53643;DHT22;39546;45.534;12.048;2024-02-21T12:15:31;16.40;77.90
53643;DHT22;39546;45.534;12.048;2024-02-21T12:21:34;16.40;75.80
53643;DHT22;39546;45.534;12.048;2024-02-21T12:27:39;16.30;75.80
53643;DHT22;39546;45.534;12.048;2024-02-21T12:33:40;16.40;74.70
53643;DHT22;39546;45.534;12.048;2024-02-21T12:39:42;16.50;74.60
53643;DHT22;39546;45.534;12.048;2024-02-21T12:45:45;16.60;74.30
53643;DHT22;39546;45.534;12.048;2024-02-21T12:51:48;16.60;73.20
53643;DHT22;39546;45.534;12.048;2024-02-21T12:57:50;16.60;72.00
53643;DHT22;39546;45.534;12.048;2024-02-21T13:03:52;16.60;72.30
53643;DHT22;39546;45.534;12.048;2024-02-21T13:09:55;16.80;72.40
53643;DHT22;39546;45.534;12.048;2024-02-21T13:15:58;16.80;71.90
53643;DHT22;39546;45.534;12.048;2024-02-21T13:22:00;16.80;71.10
53643;DHT22;39546;45.534;12.048;2024-02-21T13:28:02;16.80;70.20
53643;DHT22;39546;45.534;12.048;2024-02-21T13:34:04;16.70;69.30
53643;DHT22;39546;45.534;12.048;2024-02-21T13:40:07;16.80;70.20
53643;DHT22;39546;45.534;12.048;2024-02-21T13:46:10;17.10;72.30
53643;DHT22;39546;45.534;12.048;2024-02-21T13:52:18;17.20;70.60
53643;DHT22;39546;45.534;12.048;2024-02-21T13:58:23;17.30;70.50
53643;DHT22;39546;45.534;12.048;2024-02-21T14:04:26;17.30;70.00
53643;DHT22;39546;45.534;12.048;2024-02-21T14:10:28;17.30;69.90
53643;DHT22;39546;45.534;12.048;2024-02-21T14:16:30;17.40;68.70
53643;DHT22;39546;45.534;12.048;2024-02-21T14:22:32;17.40;68.20
53643;DHT22;39546;45.534;12.048;2024-02-21T14:28:34;17.30;68.20
53643;DHT22;39546;45.534;12.048;2024-02-21T14:34:36;17.30;68.10
53643;DHT22;39546;45.534;12.048;2024-02-21T14:40:38;17.50;69.20
53643;DHT22;39546;45.534;12.048;2024-02-21T14:46:40;17.90;70.40
53643;DHT22;39546;45.534;12.048;2024-02-21T14:52:41;18.00;70.30
53643;DHT22;39546;45.534;12.048;2024-02-21T14:58:45;18.30;71.30
53643;DHT22;39546;45.534;12.048;2024-02-21T15:04:48;18.30;71.40
53643;DHT22;39546;45.534;12.048;2024-02-21T15:10:50;18.40;71.90
53643;DHT22;39546;45.534;12.048;2024-02-21T15:16:52;18.60;73.00
53643;DHT22;39546;45.534;12.048;2024-02-21T15:22:54;18.40;73.30
53643;DHT22;39546;45.534;12.048;2024-02-21T15:28:56;18.20;74.50
53643;DHT22;39546;45.534;12.048;2024-02-21T15:34:58;18.10;74.70
53643;DHT22;39546;45.534;12.048;2024-02-21T15:40:59;17.80;75.50
53643;DHT22;39546;45.534;12.048;2024-02-21T15:47:01;17.90;75.90
53643;DHT22;39546;45.534;12.048;2024-02-21T15:53:03;17.80;75.70
53643;DHT22;39546;45.534;12.048;2024-02-21T15:59:05;17.60;76.70
53643;DHT22;39546;45.534;12.048;2024-02-21T16:05:08;17.40;76.90
53643;DHT22;39546;45.534;12.048;2024-02-21T16:11:14;17.00;77.20
53643;DHT22;39546;45.534;12.048;2024-02-21T16:17:17;16.90;77.90
53643;DHT22;39546;45.534;12.048;2024-02-21T16:23:19;16.80;77.90
53643;DHT22;39546;45.534;12.048;2024-02-21T16:29:20;16.70;78.30
53643;DHT22;39546;45.534;12.048;2024-02-21T16:35:24;16.50;78.40
53643;DHT22;39546;45.534;12.048;2024-02-21T16:41:29;16.40;78.80
53643;DHT22;39546;45.534;12.048;2024-02-21T16:47:31;16.20;78.80
53643;DHT22;39546;45.534;12.048;2024-02-21T16:53:33;16.00;78.80
53643;DHT22;39546;45.534;12.048;2024-02-21T16:59:34;15.90;79.20
53643;DHT22;39546;45.534;12.048;2024-02-21T17:05:38;15.80;79.20
53643;DHT22;39546;45.534;12.048;2024-02-21T17:11:40;15.80;79.60
53643;DHT22;39546;45.534;12.048;2024-02-21T17:17:42;15.80;80.00
53643;DHT22;39546;45.534;12.048;2024-02-21T17:23:44;15.80;80.10
53643;DHT22;39546;45.534;12.048;2024-02-21T17:29:46;15.70;80.20
53643;DHT22;39546;45.534;12.048;2024-02-21T17:35:47;15.60;80.20
53643;DHT22;39546;45.534;12.048;2024-02-21T17:41:51;15.50;80.20
53643;DHT22;39546;45.534;12.048;2024-02-21T17:47:54;15.40;80.20
53643;DHT22;39546;45.534;12.048;2024-02-21T17:53:56;15.40;80.20
53643;DHT22;39546;45.534;12.048;2024-02-21T17:59:58;15.30;80.30
53643;DHT22;39546;45.534;12.048;2024-02-21T18:06:01;15.20;80.30
53643;DHT22;39546;45.534;12.048;2024-02-21T18:12:03;15.20;80.40
53643;DHT22;39546;45.534;12.048;2024-02-21T18:18:05;15.10;80.50
53643;DHT22;39546;45.534;12.048;2024-02-21T18:24:07;15.00;80.50
53643;DHT22;39546;45.534;12.048;2024-02-21T18:30:10;15.00;80.50
53643;DHT22;39546;45.534;12.048;2024-02-21T18:36:12;14.90;80.40
53643;DHT22;39546;45.534;12.048;2024-02-21T18:42:14;14.80;80.40
53643;DHT22;39546;45.534;12.048;2024-02-21T18:48:16;14.70;80.40
53643;DHT22;39546;45.534;12.048;2024-02-21T18:54:18;14.60;80.60
53643;DHT22;39546;45.534;12.048;2024-02-21T19:00:20;14.60;80.70
53643;DHT22;39546;45.534;12.048;2024-02-21T19:06:24;14.50;80.80
53643;DHT22;39546;45.534;12.048;2024-02-21T19:12:29;14.40;80.80
53643;DHT22;39546;45.534;12.048;2024-02-21T19:18:32;14.50;80.80
53643;DHT22;39546;45.534;12.048;2024-02-21T19:24:34;14.50;80.70
53643;DHT22;39546;45.534;12.048;2024-02-21T19:30:36;14.40;80.60
53643;DHT22;39546;45.534;12.048;2024-02-21T19:36:38;14.30;80.60
53643;DHT22;39546;45.534;12.048;2024-02-21T19:42:40;14.40;80.70
53643;DHT22;39546;45.534;12.048;2024-02-21T19:48:43;14.30;80.70
53643;DHT22;39546;45.534;12.048;2024-02-21T19:54:45;14.20;80.70
53643;DHT22;39546;45.534;12.048;2024-02-21T20:00:47;14.20;80.80
53643;DHT22;39546;45.534;12.048;2024-02-21T20:06:48;14.10;80.70
53643;DHT22;39546;45.534;12.048;2024-02-21T20:12:50;14.00;80.70
53643;DHT22;39546;45.534;12.048;2024-02-21T20:18:52;14.00;80.70
53643;DHT22;39546;45.534;12.048;2024-02-21T20:24:54;13.90;80.60
53643;DHT22;39546;45.534;12.048;2024-02-21T20:30:56;13.90;80.60
53643;DHT22;39546;45.534;12.048;2024-02-21T20:36:58;13.80;80.50
53643;DHT22;39546;45.534;12.048;2024-02-21T20:43:00;13.80;80.50
53643;DHT22;39546;45.534;12.048;2024-02-21T20:49:03;13.70;80.70
53643;DHT22;39546;45.534;12.048;2024-02-21T20:55:05;13.70;80.70
53643;DHT22;39546;45.534;12.048;2024-02-21T21:01:08;13.70;80.60
53643;DHT22;39546;45.534;12.048;2024-02-21T21:07:10;13.70;80.60
53643;DHT22;39546;45.534;12.048;2024-02-21T21:13:12;13.60;80.70
53643;DHT22;39546;45.534;12.048;2024-02-21T21:19:14;13.50;80.80
53643;DHT22;39546;45.534;12.048;2024-02-21T21:25:16;13.50;80.70
53643;DHT22;39546;45.534;12.048;2024-02-21T21:31:17;13.50;80.60
53643;DHT22;39546;45.534;12.048;2024-02-21T21:37:21;13.30;80.70
53643;DHT22;39546;45.534;12.048;2024-02-21T21:43:22;13.40;80.60
53643;DHT22;39546;45.534;12.048;2024-02-21T21:49:25;13.30;80.60
53643;DHT22;39546;45.534;12.048;2024-02-21T21:55:28;13.30;80.70
53643;DHT22;39546;45.534;12.048;2024-02-21T22:01:31;13.20;80.80
53643;DHT22;39546;45.534;12.048;2024-02-21T22:07:34;13.20;80.70
53643;DHT22;39546;45.534;12.048;2024-02-21T22:13:35;13.20;80.70
53643;DHT22;39546;45.534;12.048;2024-02-21T22:19:37;13.30;80.90
53643;DHT22;39546;45.534;12.048;2024-02-21T22:25:39;13.20;80.90
53643;DHT22;39546;45.534;12.048;2024-02-21T22:31:41;13.20;80.90
53643;DHT22;39546;45.534;12.048;2024-02-21T22:37:43;13.20;81.20
53643;DHT22;39546;45.534;12.048;2024-02-21T22:43:45;13.20;81.10
53643;DHT22;39546;45.534;12.048;2024-02-21T22:49:47;13.10;81.00
53643;DHT22;39546;45.534;12.048;2024-02-21T22:55:48;13.10;81.00
53643;DHT22;39546;45.534;12.048;2024-02-21T23:01:50;13.10;81.00
53643;DHT22;39546;45.534;12.048;2024-02-21T23:07:52;12.90;81.00
53643;DHT22;39546;45.534;12.048;2024-02-21T23:14:00;12.80;80.90
53643;DHT22;39546;45.534;12.048;2024-02-21T23:20:04;12.70;80.80
53643;DHT22;39546;45.534;12.048;2024-02-21T23:26:30;12.80;80.90
53643;DHT22;39546;45.534;12.048;2024-02-21T23:32:32;12.80;80.80
53643;DHT22;39546;45.534;12.048;2024-02-21T23:38:34;12.70;80.80
53643;DHT22;39546;45.534;12.048;2024-02-21T23:44:35;12.50;81.30
53643;DHT22;39546;45.534;12.048;2024-02-21T23:50:37;12.70;81.30
53643;DHT22;39546;45.534;12.048;2024-02-21T23:56:42;12.70;81.50
